Time;durP1;ratioP1;P1;durP2;ratioP2;P2;SDS_P1;SDS_P2;PMS_P1;PMS_P2;Temp;Humidity;BMP_temperature;BMP_pressure;BME280_temperature;BME280_humidity;BME280_pressure;Samples;Min_cycle;Max_cycle;Signal;HPM_P1;HPM_P2
2023/07/22 00:02:23;;;;;;;;;;;;;;;23.32;47.63;98689.59;5055845;28;19917;-46
2023/07/22 00:04:52;;;;;;;;;;;;;;;23.01;48.67;98690.94;5054537;28;20332;-46
2023/07/22 00:07:18;;;;;;;;;;;;;;;22.81;49.13;98686.56;5055724;28;19917;-46
2023/07/22 00:09:43;;;;;;;;;;;;;;;22.79;49.67;98681.50;5055779;28;19920;-46
2023/07/22 00:12:09;;;;;;;;;;;;;;;23.17;49.68;98686.28;5055629;28;20310;-46
2023/07/22 00:14:38;;;;;;;;;;;;;;;23.37;48.79;98693.31;5054286;28;19920;-46
2023/07/22 00:17:04;;;;;;;;;;;;;;;23.31;48.53;98690.66;5055604;28;20043;-46
2023/07/22 00:19:29;;;;;;;;;;;;;;;23.42;48.58;98690.56;5054308;28;20011;-46
2023/07/22 00:21:55;;;;;;;;;;;;;;;23.47;47.87;98693.19;5054181;28;20409;-46
2023/07/22 00:24:22;;;;;;;;;;;;;;;23.38;48.08;98692.22;5054236;28;19924;-46
2023/07/22 00:26:49;;;;;;;;;;;;;;;23.45;48.02;98700.72;5054134;28;20050;-46
2023/07/22 00:29:15;;;;;;;;;;;;;;;23.32;47.88;98696.81;5055361;28;19928;-46
2023/07/22 00:31:41;;;;;;;;;;;;;;;23.40;48.27;98690.03;5073112;28;19925;-46
2023/07/22 00:34:06;;;;;;;;;;;;;;;23.62;47.56;98689.53;5075228;28;19916;-46
2023/07/22 00:36:32;;;;;;;;;;;;;;;23.63;47.55;98686.56;5057333;28;19922;-46
2023/07/22 00:38:57;;;;;;;;;;;;;;;23.36;48.64;98689.03;5075208;28;20390;-46
2023/07/22 00:41:23;;;;;;;;;;;;;;;23.31;48.48;98682.63;5075104;28;19964;-46
2023/07/22 00:43:48;;;;;;;;;;;;;;;23.27;48.21;98686.97;5075078;28;20429;-46
2023/07/22 00:46:13;;;;;;;;;;;;;;;23.11;48.50;98680.16;5057096;28;20003;-46
2023/07/22 00:48:39;;;;;;;;;;;;;;;23.10;48.76;98678.56;5057069;28;20352;-46
2023/07/22 00:51:05;;;;;;;;;;;;;;;23.17;49.55;98675.56;5074843;28;19920;-46
2023/07/22 00:53:30;;;;;;;;;;;;;;;23.26;49.32;98674.66;5040403;28;19917;-46
2023/07/22 00:55:56;;;;;;;;;;;;;;;23.23;49.33;98669.09;5074911;28;19921;-46
2023/07/22 00:58:21;;;;;;;;;;;;;;;23.36;49.70;98667.59;5074109;28;19966;-46
2023/07/22 01:00:48;;;;;;;;;;;;;;;23.65;49.30;98668.34;5074849;28;20346;-46
2023/07/22 01:03:18;;;;;;;;;;;;;;;23.60;48.77;98667.59;5074707;28;20360;-46
2023/07/22 01:05:45;;;;;;;;;;;;;;;23.79;48.67;98670.34;5074736;28;19924;-46
2023/07/22 01:08:10;;;;;;;;;;;;;;;23.99;47.67;98662.03;5074658;28;19951;-46
2023/07/22 01:10:36;;;;;;;;;;;;;;;24.19;47.51;98677.03;5074564;28;20516;-46
2023/07/22 01:13:01;;;;;;;;;;;;;;;24.36;46.69;98676.53;5074791;28;20298;-46
2023/07/22 01:15:28;;;;;;;;;;;;;;;24.26;46.71;98674.78;5074550;28;19970;-46
2023/07/22 01:17:55;;;;;;;;;;;;;;;23.98;46.68;98671.16;5074536;28;19917;-46
2023/07/22 01:20:21;;;;;;;;;;;;;;;23.50;46.65;98676.53;5074696;28;19916;-46
2023/07/22 01:22:52;;;;;;;;;;;;;;;23.27;47.54;98673.56;5074437;28;20333;-46
2023/07/22 01:25:19;;;;;;;;;;;;;;;23.44;48.16;98672.31;5056428;28;20370;-46
2023/07/22 01:27:45;;;;;;;;;;;;;;;23.68;47.66;98669.63;5074343;28;19924;-46
2023/07/22 01:30:11;;;;;;;;;;;;;;;23.85;47.32;98664.63;5052688;28;20066;-45
2023/07/22 01:32:36;;;;;;;;;;;;;;;23.88;47.12;98666.72;5052938;28;19917;-46
2023/07/22 01:35:02;;;;;;;;;;;;;;;23.99;47.16;98661.25;5052810;28;19938;-46
2023/07/22 01:37:27;;;;;;;;;;;;;;;24.01;47.05;98659.88;5054171;28;19916;-46
2023/07/22 01:39:53;;;;;;;;;;;;;;;23.83;46.68;98661.44;5054069;28;19921;-46
2023/07/22 01:42:18;;;;;;;;;;;;;;;23.65;46.78;98660.28;5054020;28;19921;-46
2023/07/22 01:44:43;;;;;;;;;;;;;;;23.50;47.80;98660.47;5052707;28;20382;-46
2023/07/22 01:47:09;;;;;;;;;;;;;;;23.67;47.90;98646.63;5053941;28;20303;-45
2023/07/22 01:49:34;;;;;;;;;;;;;;;23.67;47.62;98649.28;5053725;28;19971;-46
2023/07/22 01:52:00;;;;;;;;;;;;;;;23.58;47.70;98653.69;5052377;28;19921;-46
2023/07/22 01:54:26;;;;;;;;;;;;;;;23.81;47.75;98657.47;5053837;28;19917;-46
2023/07/22 01:56:51;;;;;;;;;;;;;;;23.94;47.15;98662.09;5053794;28;20003;-46
2023/07/22 01:59:16;;;;;;;;;;;;;;;23.77;46.87;98653.72;5052384;28;20346;-46
2023/07/22 02:01:42;;;;;;;;;;;;;;;23.49;46.69;98662.34;5053691;28;19920;-46
2023/07/22 02:04:07;;;;;;;;;;;;;;;23.17;46.85;98662.19;5053657;28;19921;-46
2023/07/22 02:06:34;;;;;;;;;;;;;;;22.78;47.74;98653.16;5052274;28;19920;-46
2023/07/22 02:09:00;;;;;;;;;;;;;;;22.71;48.38;98652.66;5053542;28;19917;-46
2023/07/22 02:11:25;;;;;;;;;;;;;;;22.94;48.21;98654.59;5052563;28;19928;-46
2023/07/22 02:13:50;;;;;;;;;;;;;;;23.16;47.65;98655.22;5052130;28;20051;-46
2023/07/22 02:16:16;;;;;;;;;;;;;;;23.29;47.47;98659.91;5068857;28;20050;-46
2023/07/22 02:18:41;;;;;;;;;;;;;;;23.40;47.47;98652.56;5052086;28;19962;-46
2023/07/22 02:21:07;;;;;;;;;;;;;;;23.25;47.11;98658.88;5053308;28;19921;-46
2023/07/22 02:23:32;;;;;;;;;;;;;;;23.20;46.83;98657.06;5053353;28;19960;-46
2023/07/22 02:25:58;;;;;;;;;;;;;;;23.22;46.38;98652.22;5051874;28;19917;-46
2023/07/22 02:28:24;;;;;;;;;;;;;;;23.13;46.82;98657.38;5051908;28;19924;-46
2023/07/22 02:30:53;;;;;;;;;;;;;;;23.21;46.98;98660.53;5063787;28;20352;-46
2023/07/22 02:33:19;;;;;;;;;;;;;;;23.27;47.24;98664.75;5055346;28;19920;-45
2023/07/22 02:35:45;;;;;;;;;;;;;;;23.30;46.95;98662.31;5055014;28;19920;-46
2023/07/22 02:38:10;;;;;;;;;;;;;;;23.53;47.13;98663.38;5054977;28;19917;-46
2023/07/22 02:40:36;;;;;;;;;;;;;;;23.85;46.25;98661.94;5054944;28;20345;-46
2023/07/22 02:43:03;;;;;;;;;;;;;;;23.83;45.02;98657.97;5054915;28;19916;-46
2023/07/22 02:45:28;;;;;;;;;;;;;;;23.72;45.11;98662.63;5072670;28;19916;-46
2023/07/22 02:47:54;;;;;;;;;;;;;;;23.69;45.29;98666.66;5072736;28;20645;-46
2023/07/22 02:50:19;;;;;;;;;;;;;;;23.67;45.27;98676.09;5054629;28;20372;-46
2023/07/22 02:52:45;;;;;;;;;;;;;;;23.57;45.25;98673.53;5072687;28;20358;-45
2023/07/22 02:55:14;;;;;;;;;;;;;;;23.47;45.41;98663.72;5072822;28;19916;-46
2023/07/22 02:57:40;;;;;;;;;;;;;;;23.31;45.17;98671.13;5072602;28;19916;-46
2023/07/22 03:00:08;;;;;;;;;;;;;;;23.15;45.20;98672.38;5072742;28;19921;-46
2023/07/22 03:02:37;;;;;;;;;;;;;;;22.98;45.55;98676.25;5054582;28;19917;-46
2023/07/22 03:05:06;;;;;;;;;;;;;;;22.88;45.94;98673.69;5072449;28;20382;-46
2023/07/22 03:07:32;;;;;;;;;;;;;;;22.90;45.79;98680.34;5072551;28;19916;-46
2023/07/22 03:09:57;;;;;;;;;;;;;;;22.92;45.70;98675.50;5072418;28;20400;-46
2023/07/22 03:12:23;;;;;;;;;;;;;;;22.94;45.53;98681.38;5072286;28;19920;-46
2023/07/22 03:14:48;;;;;;;;;;;;;;;23.07;45.37;98679.94;5072315;28;19924;-46
2023/07/22 03:17:16;;;;;;;;;;;;;;;23.20;45.35;98683.03;5072346;28;19921;-46
2023/07/22 03:19:41;;;;;;;;;;;;;;;23.31;45.07;98689.88;5072555;28;19955;-46
2023/07/22 03:22:07;;;;;;;;;;;;;;;23.40;45.09;98687.38;5071972;28;19917;-45
2023/07/22 03:24:32;;;;;;;;;;;;;;;23.25;45.04;98685.66;5054261;28;19917;-46
2023/07/22 03:26:58;;;;;;;;;;;;;;;23.12;44.93;98689.81;5054216;28;19920;-46
2023/07/22 03:29:24;;;;;;;;;;;;;;;23.03;45.03;98700.31;5072167;28;19924;-46
2023/07/22 03:31:49;;;;;;;;;;;;;;;22.82;45.61;98702.34;5071800;28;19920;-46
2023/07/22 03:34:17;;;;;;;;;;;;;;;22.66;45.75;98709.69;5054030;28;20147;-45
2023/07/22 03:36:42;;;;;;;;;;;;;;;22.58;45.94;98706.81;5054177;28;20309;-46
2023/07/22 03:39:08;;;;;;;;;;;;;;;22.63;46.04;98704.09;5072101;28;19988;-46
2023/07/22 03:41:33;;;;;;;;;;;;;;;22.71;46.06;98708.84;5054022;28;19954;-46
2023/07/22 03:43:59;;;;;;;;;;;;;;;22.67;45.92;98702.47;5054016;28;19991;-46
2023/07/22 03:46:24;;;;;;;;;;;;;;;22.62;45.80;98714.00;5072042;28;19925;-45
2023/07/22 03:48:50;;;;;;;;;;;;;;;22.55;45.99;98721.53;5072011;28;19952;-46
2023/07/22 03:51:15;;;;;;;;;;;;;;;22.47;45.90;98720.25;5071780;28;19952;-46
2023/07/22 03:53:40;;;;;;;;;;;;;;;22.40;46.32;98714.41;5053951;28;19925;-46
2023/07/22 03:56:06;;;;;;;;;;;;;;;22.33;46.40;98712.06;5071887;28;19940;-46
2023/07/22 03:58:31;;;;;;;;;;;;;;;22.29;46.34;98726.25;5071941;28;19920;-46
2023/07/22 04:00:57;;;;;;;;;;;;;;;22.23;46.22;98720.09;5071880;28;19917;-45
2023/07/22 04:03:22;;;;;;;;;;;;;;;22.14;46.53;98719.88;5053874;28;19923;-45
2023/07/22 04:05:57;;;;;;;;;;;;;;;22.11;46.75;98728.47;5071807;28;19921;-45
2023/07/22 04:08:22;;;;;;;;;;;;;;;22.07;47.50;98735.44;5072137;28;19928;-46
2023/07/22 04:10:54;;;;;;;;;;;;;;;22.18;47.41;98727.34;5053736;28;19916;-45
2023/07/22 04:13:20;;;;;;;;;;;;;;;22.33;47.53;98738.81;5071800;28;19916;-45
2023/07/22 04:15:46;;;;;;;;;;;;;;;22.52;47.02;98732.81;5053714;28;19932;-45
2023/07/22 04:18:12;;;;;;;;;;;;;;;22.52;47.24;98727.47;5071773;28;19916;-46
2023/07/22 04:20:37;;;;;;;;;;;;;;;22.50;47.10;98733.06;5071704;28;19923;-45
2023/07/22 04:23:02;;;;;;;;;;;;;;;22.58;47.30;98736.22;5053606;28;19942;-45
2023/07/22 04:25:28;;;;;;;;;;;;;;;22.83;46.82;98735.25;5071671;28;19924;-46
2023/07/22 04:27:53;;;;;;;;;;;;;;;23.02;46.75;98748.78;5071633;28;19916;-46
2023/07/22 04:30:20;;;;;;;;;;;;;;;23.16;46.98;98739.03;5071381;28;19920;-46
2023/07/22 04:32:49;;;;;;;;;;;;;;;23.25;46.65;98740.00;5071751;28;19928;-46
2023/07/22 04:35:17;;;;;;;;;;;;;;;23.22;47.14;98737.91;5074482;28;19973;-46
2023/07/22 04:37:42;;;;;;;;;;;;;;;23.47;46.81;98741.41;5075857;28;19916;-46
2023/07/22 04:40:13;;;;;;;;;;;;;;;23.64;46.56;98738.28;5057233;28;19920;-46
2023/07/22 04:42:38;;;;;;;;;;;;;;;23.77;45.65;98742.16;5075088;28;19920;-46
2023/07/22 04:45:04;;;;;;;;;;;;;;;23.93;45.32;98736.34;5057136;28;20014;-46
2023/07/22 04:47:32;;;;;;;;;;;;;;;23.91;44.93;98735.84;5057061;28;19917;-46
2023/07/22 04:49:57;;;;;;;;;;;;;;;23.91;45.40;98741.22;5074978;28;20198;-46
2023/07/22 04:52:22;;;;;;;;;;;;;;;23.86;45.12;98741.25;5056932;28;20291;-46
2023/07/22 04:54:48;;;;;;;;;;;;;;;23.52;45.96;98742.16;5074903;28;20394;-46
2023/07/22 04:57:13;;;;;;;;;;;;;;;23.63;46.51;98740.16;5074883;28;19927;-46
2023/07/22 04:59:39;;;;;;;;;;;;;;;24.00;45.54;98745.94;5074937;28;19917;-46
2023/07/22 05:02:04;;;;;;;;;;;;;;;23.47;45.76;98744.09;5074836;28;19923;-46
2023/07/22 05:04:29;;;;;;;;;;;;;;;22.66;47.37;98751.72;5075003;28;19917;-46
2023/07/22 05:06:55;;;;;;;;;;;;;;;22.13;48.31;98745.03;5074738;28;19931;-46
2023/07/22 05:09:20;;;;;;;;;;;;;;;21.93;49.10;98745.09;5074678;28;19973;-46
2023/07/22 05:11:46;;;;;;;;;;;;;;;21.91;49.74;98745.38;5074602;28;20026;-46
2023/07/22 05:14:11;;;;;;;;;;;;;;;21.49;49.91;98751.09;5074654;28;19963;-46
2023/07/22 05:16:37;;;;;;;;;;;;;;;21.13;50.35;98754.59;5056523;28;19924;-46
2023/07/22 05:19:04;;;;;;;;;;;;;;;21.31;51.59;98760.47;5074436;28;19920;-46
2023/07/22 05:21:30;;;;;;;;;;;;;;;21.97;51.34;98762.16;5074694;28;20305;-46
2023/07/22 05:23:55;;;;;;;;;;;;;;;22.45;50.11;98762.50;5056451;28;19920;-46
2023/07/22 05:26:20;;;;;;;;;;;;;;;22.76;49.61;98766.88;5056390;28;19920;-45
2023/07/22 05:28:46;;;;;;;;;;;;;;;23.15;48.94;98764.19;5056302;28;19923;-46
2023/07/22 05:31:11;;;;;;;;;;;;;;;23.54;48.06;98763.28;5073977;28;19967;-46
2023/07/22 05:33:37;;;;;;;;;;;;;;;23.87;47.19;98763.53;5056268;28;19917;-46
2023/07/22 05:36:03;;;;;;;;;;;;;;;24.35;45.96;98759.97;5074377;28;20389;-46
2023/07/22 05:38:28;;;;;;;;;;;;;;;25.49;43.81;98763.31;5074177;28;20405;-46
2023/07/22 05:40:53;;;;;;;;;;;;;;;26.06;42.00;98761.16;5056085;28;19966;-46
2023/07/22 05:43:19;;;;;;;;;;;;;;;26.05;42.22;98762.25;5074061;28;19969;-46
2023/07/22 05:45:44;;;;;;;;;;;;;;;26.59;40.94;98753.63;5055872;28;20345;-46
2023/07/22 05:48:10;;;;;;;;;;;;;;;26.24;41.02;98764.84;5056016;28;20019;-46
2023/07/22 05:50:36;;;;;;;;;;;;;;;25.89;41.56;98772.50;5055802;28;19920;-46
2023/07/22 05:53:01;;;;;;;;;;;;;;;25.66;41.75;98770.81;5074153;28;19916;-46
2023/07/22 05:55:27;;;;;;;;;;;;;;;25.41;42.43;98772.84;5055827;28;20446;-46
2023/07/22 05:57:52;;;;;;;;;;;;;;;24.98;42.61;98769.53;5055778;28;19923;-46
2023/07/22 06:00:18;;;;;;;;;;;;;;;24.10;43.49;98769.94;5055742;28;19916;-45
2023/07/22 06:02:44;;;;;;;;;;;;;;;23.90;44.75;98774.47;5073628;28;20062;-45
2023/07/22 06:05:09;;;;;;;;;;;;;;;25.07;43.94;98781.19;5055645;28;19951;-46
2023/07/22 06:07:35;;;;;;;;;;;;;;;26.40;41.80;98775.25;5055575;28;19924;-46
2023/07/22 06:10:00;;;;;;;;;;;;;;;27.83;39.72;98773.66;5055526;28;19917;-46
2023/07/22 06:12:26;;;;;;;;;;;;;;;29.52;37.50;98778.50;5055515;28;20378;-46
2023/07/22 06:14:51;;;;;;;;;;;;;;;30.72;35.69;98775.44;5073378;28;19920;-46
2023/07/22 06:17:17;;;;;;;;;;;;;;;31.65;33.85;98767.84;5073404;28;19959;-46
2023/07/22 06:19:42;;;;;;;;;;;;;;;32.50;33.20;98767.28;5055356;28;19916;-46
2023/07/22 06:22:07;;;;;;;;;;;;;;;33.16;32.25;98760.59;5073239;28;20304;-46
2023/07/22 06:24:33;;;;;;;;;;;;;;;33.72;30.20;98762.38;5055317;28;19917;-46
2023/07/22 06:26:58;;;;;;;;;;;;;;;34.07;29.49;98756.97;5073149;28;19920;-46
2023/07/22 06:29:24;;;;;;;;;;;;;;;34.33;28.98;98759.13;5055185;28;19917;-46
2023/07/22 06:31:49;;;;;;;;;;;;;;;34.90;28.53;98758.69;5072788;28;19926;-47
2023/07/22 06:34:14;;;;;;;;;;;;;;;35.28;27.69;98757.06;5073029;28;19951;-47
2023/07/22 06:36:40;;;;;;;;;;;;;;;35.62;27.12;98749.81;5072938;28;19967;-47
2023/07/22 06:39:05;;;;;;;;;;;;;;;35.80;26.42;98750.13;5055286;28;19959;-46
2023/07/22 06:41:31;;;;;;;;;;;;;;;35.85;27.16;98755.25;5072860;28;19981;-46
2023/07/22 06:43:56;;;;;;;;;;;;;;;36.38;26.95;98757.16;5072857;28;19916;-47
2023/07/22 06:46:21;;;;;;;;;;;;;;;37.16;26.39;98759.22;5054821;28;19917;-46
2023/07/22 06:48:47;;;;;;;;;;;;;;;37.45;24.88;98760.28;5072726;28;19928;-46
2023/07/22 06:51:12;;;;;;;;;;;;;;;37.66;24.33;98759.66;5072960;28;19999;-47
2023/07/22 06:53:38;;;;;;;;;;;;;;;37.77;23.58;98760.53;5054733;28;19917;-47
2023/07/22 06:56:03;;;;;;;;;;;;;;;38.17;23.37;98769.00;5072386;28;19916;-44
2023/07/22 06:58:29;;;;;;;;;;;;;;;38.50;22.73;98758.97;5072366;28;19972;-44
2023/07/22 07:00:55;;;;;;;;;;;;;;;38.63;21.57;98757.47;5072628;28;20617;-44
2023/07/22 07:03:21;;;;;;;;;;;;;;;38.73;21.13;98753.97;5072598;28;20348;-44
2023/07/22 07:05:58;;;;;;;;;;;;;;;38.85;21.15;98761.06;5054623;28;19920;-44
2023/07/22 07:08:24;;;;;;;;;;;;;;;39.04;20.99;98762.69;5038328;28;20393;-44
2023/07/22 07:10:50;;;;;;;;;;;;;;;39.21;20.66;98760.34;5054506;28;19970;-44
2023/07/22 07:13:16;;;;;;;;;;;;;;;39.31;21.00;98765.06;5072711;28;19925;-44
2023/07/22 07:15:46;;;;;;;;;;;;;;;39.33;20.53;98765.47;5072405;28;19966;-44
2023/07/22 07:18:12;;;;;;;;;;;;;;;39.38;20.10;98762.31;5054426;28;20386;-44
2023/07/22 07:20:37;;;;;;;;;;;;;;;39.04;20.35;98764.63;5054368;28;19916;-44
2023/07/22 07:23:03;;;;;;;;;;;;;;;38.98;20.38;98767.00;5072629;28;19921;-44
2023/07/22 07:25:28;;;;;;;;;;;;;;;38.85;20.64;98763.78;5072275;28;19917;-44
2023/07/22 07:27:54;;;;;;;;;;;;;;;38.54;20.68;98768.03;5054274;28;20314;-44
2023/07/22 07:30:19;;;;;;;;;;;;;;;38.19;21.14;98765.88;5072002;28;19920;-44
2023/07/22 07:32:45;;;;;;;;;;;;;;;37.79;21.52;98768.34;5072364;28;19927;-44
2023/07/22 07:35:11;;;;;;;;;;;;;;;37.48;21.46;98769.69;5054188;28;20386;-47
2023/07/22 07:37:37;;;;;;;;;;;;;;;37.28;22.00;98778.09;5072131;28;19920;-46
2023/07/22 07:40:03;;;;;;;;;;;;;;;36.84;22.18;98770.59;5072031;28;20538;-47
2023/07/22 07:42:28;;;;;;;;;;;;;;;36.11;23.07;98773.56;5072090;28;20499;-47
2023/07/22 07:44:54;;;;;;;;;;;;;;;36.12;23.86;98786.09;5054068;28;19920;-47
2023/07/22 07:47:20;;;;;;;;;;;;;;;36.29;23.22;98773.06;5054116;28;20011;-47
2023/07/22 07:49:45;;;;;;;;;;;;;;;36.27;23.34;98770.69;5071954;28;19994;-47
2023/07/22 07:52:11;;;;;;;;;;;;;;;36.47;23.16;98762.34;5071945;28;19939;-47
2023/07/22 07:54:36;;;;;;;;;;;;;;;36.36;23.08;98773.13;5072008;28;19917;-47
2023/07/22 07:57:02;;;;;;;;;;;;;;;36.24;23.43;98771.44;5053983;28;19917;-47
2023/07/22 07:59:27;;;;;;;;;;;;;;;36.82;22.79;98777.63;5053945;28;19920;-47
2023/07/22 08:01:53;;;;;;;;;;;;;;;37.39;22.45;98770.00;5053949;28;19916;-47
2023/07/22 08:04:18;;;;;;;;;;;;;;;37.53;22.36;98767.38;5071898;28;19965;-47
2023/07/22 08:06:44;;;;;;;;;;;;;;;37.85;22.37;98766.03;5071881;28;19971;-47
2023/07/22 08:09:10;;;;;;;;;;;;;;;38.43;21.41;98767.16;5074816;28;19920;-47
2023/07/22 08:11:36;;;;;;;;;;;;;;;39.00;20.82;98772.88;5075899;28;19928;-47
2023/07/22 08:14:01;;;;;;;;;;;;;;;39.56;20.55;98765.06;5075758;28;19920;-47
2023/07/22 08:16:27;;;;;;;;;;;;;;;40.25;19.74;98765.75;5075966;28;19921;-47
2023/07/22 08:18:53;;;;;;;;;;;;;;;40.83;19.49;98760.78;5075604;28;20394;-47
2023/07/22 08:21:19;;;;;;;;;;;;;;;41.14;19.43;98759.03;5075590;28;19923;-47
2023/07/22 08:23:46;;;;;;;;;;;;;;;41.41;19.18;98756.47;5075877;28;19916;-47
2023/07/22 08:26:12;;;;;;;;;;;;;;;41.90;18.44;98762.72;5075470;28;20408;-47
2023/07/22 08:28:38;;;;;;;;;;;;;;;42.35;18.54;98766.56;5075693;28;19917;-47
2023/07/22 08:31:03;;;;;;;;;;;;;;;42.65;18.35;98768.56;5053797;28;19968;-47
2023/07/22 08:33:29;;;;;;;;;;;;;;;42.70;17.90;98766.13;5054061;28;19917;-47
2023/07/22 08:35:57;;;;;;;;;;;;;;;42.70;17.17;98760.63;5055564;28;19916;-48
2023/07/22 08:38:22;;;;;;;;;;;;;;;42.07;18.25;98762.97;5054008;28;20409;-48
2023/07/22 08:40:49;;;;;;;;;;;;;;;42.57;18.24;98759.59;5055250;28;19917;-48
2023/07/22 08:43:15;;;;;;;;;;;;;;;43.00;18.01;98763.75;5055453;28;19917;-48
2023/07/22 08:45:41;;;;;;;;;;;;;;;43.47;17.64;98761.81;5053841;28;19921;-47
2023/07/22 08:48:09;;;;;;;;;;;;;;;43.82;16.59;98762.41;5055118;28;19940;-48
2023/07/22 08:50:35;;;;;;;;;;;;;;;43.70;17.10;98765.03;5054873;28;19917;-48
2023/07/22 08:53:01;;;;;;;;;;;;;;;44.03;16.29;98768.72;5055208;28;19940;-50
2023/07/22 08:55:26;;;;;;;;;;;;;;;44.52;16.29;98757.91;5054973;28;20294;-49
2023/07/22 08:57:55;;;;;;;;;;;;;;;44.57;15.96;98768.44;5053612;28;19916;-50
2023/07/22 09:00:20;;;;;;;;;;;;;;;44.17;15.55;98770.44;5053575;28;20417;-49
2023/07/22 09:02:46;;;;;;;;;;;;;;;43.70;16.02;98751.19;5053556;28;19920;-49
2023/07/22 09:05:11;;;;;;;;;;;;;;;43.55;16.00;98745.91;5070274;28;19916;-49
2023/07/22 09:07:38;;;;;;;;;;;;;;;43.95;15.54;98747.94;5053455;28;19923;-49
2023/07/22 09:10:04;;;;;;;;;;;;;;;44.38;15.49;98742.34;5054745;28;20386;-49
2023/07/22 09:12:30;;;;;;;;;;;;;;;44.56;15.12;98742.00;5054836;28;19917;-50
2023/07/22 09:14:56;;;;;;;;;;;;;;;44.91;15.08;98741.63;5054845;28;19928;-50
2023/07/22 09:17:21;;;;;;;;;;;;;;;44.49;14.68;98747.66;5054540;28;19940;-49
2023/07/22 09:19:51;;;;;;;;;;;;;;;44.08;15.09;98751.66;5053946;28;19917;-50
2023/07/22 09:22:17;;;;;;;;;;;;;;;44.01;15.07;98757.31;5054482;28;19917;-49
2023/07/22 09:24:42;;;;;;;;;;;;;;;43.95;14.88;98750.72;5054423;28;19967;-49
2023/07/22 09:27:07;;;;;;;;;;;;;;;44.13;14.96;98751.19;5053084;28;19974;-49
2023/07/22 09:29:37;;;;;;;;;;;;;;;44.55;14.62;98747.94;5054607;28;19987;-50
2023/07/22 09:32:03;;;;;;;;;;;;;;;44.39;14.65;98754.19;5074182;28;20402;-49
2023/07/22 09:34:28;;;;;;;;;;;;;;;44.28;13.93;98766.25;5056272;28;19962;-50
2023/07/22 09:36:57;;;;;;;;;;;;;;;44.64;14.04;98762.75;5074231;28;20019;-49
2023/07/22 09:39:24;;;;;;;;;;;;;;;45.22;13.64;98756.69;5074146;28;19916;-50
2023/07/22 09:41:49;;;;;;;;;;;;;;;45.00;13.32;98752.88;5056108;28;19926;-50
2023/07/22 09:44:15;;;;;;;;;;;;;;;44.68;12.96;98743.31;5074080;28;19916;-50
2023/07/22 09:46:41;;;;;;;;;;;;;;;44.57;13.51;98740.75;5056378;28;19965;-50
2023/07/22 09:49:12;;;;;;;;;;;;;;;44.58;13.11;98738.78;5073965;28;19965;-50
2023/07/22 09:51:40;;;;;;;;;;;;;;;44.52;12.91;98732.22;5073816;28;19916;-49
2023/07/22 09:54:06;;;;;;;;;;;;;;;42.88;13.22;98743.81;5073879;28;19925;-50
2023/07/22 09:56:33;;;;;;;;;;;;;;;42.41;13.70;98748.38;5055870;28;20268;-49
2023/07/22 09:59:05;;;;;;;;;;;;;;;41.54;13.70;98745.72;5073817;28;20408;-49
2023/07/22 10:01:32;;;;;;;;;;;;;;;41.45;14.38;98743.44;5073682;28;19916;-50
2023/07/22 10:03:58;;;;;;;;;;;;;;;41.90;14.49;98743.41;5073665;28;19962;-49
2023/07/22 10:06:26;;;;;;;;;;;;;;;42.34;14.44;98740.16;5055629;28;19917;-49
2023/07/22 10:08:52;;;;;;;;;;;;;;;42.96;14.25;98740.94;5074051;28;19995;-49
2023/07/22 10:11:18;;;;;;;;;;;;;;;42.91;14.23;98733.13;5055460;28;19916;-50
2023/07/22 10:13:44;;;;;;;;;;;;;;;43.15;14.38;98739.47;5073497;28;19983;-49
2023/07/22 10:16:09;;;;;;;;;;;;;;;43.50;14.44;98729.78;5055426;28;20412;-49
2023/07/22 10:18:37;;;;;;;;;;;;;;;44.10;13.71;98729.91;5073397;28;20394;-49
2023/07/22 10:21:02;;;;;;;;;;;;;;;44.33;13.37;98725.47;5055696;28;20397;-49
2023/07/22 10:23:29;;;;;;;;;;;;;;;43.38;13.98;98727.66;5055455;28;19916;-49
2023/07/22 10:25:55;;;;;;;;;;;;;;;42.21;14.58;98723.41;5055334;28;19917;-49
2023/07/22 10:28:21;;;;;;;;;;;;;;;42.35;15.09;98731.47;5073179;28;19920;-49
2023/07/22 10:30:47;;;;;;;;;;;;;;;41.85;14.69;98729.31;5072558;28;19928;-49
2023/07/22 10:33:13;;;;;;;;;;;;;;;40.52;15.67;98724.78;5054565;28;19916;-49
2023/07/22 10:35:43;;;;;;;;;;;;;;;40.03;16.40;98730.09;5055103;28;19917;-49
2023/07/22 10:38:12;;;;;;;;;;;;;;;40.77;16.30;98715.63;5073051;28;19920;-49
2023/07/22 10:40:49;;;;;;;;;;;;;;;41.41;15.59;98717.13;5055045;28;20404;-49
2023/07/22 10:43:17;;;;;;;;;;;;;;;41.94;15.07;98717.78;5072952;28;20015;-49
2023/07/22 10:45:43;;;;;;;;;;;;;;;42.50;14.43;98715.53;5073071;28;20400;-50
2023/07/22 10:48:10;;;;;;;;;;;;;;;42.78;14.14;98706.06;5054923;28;19920;-49
2023/07/22 10:50:52;;;;;;;;;;;;;;;43.12;13.86;98720.94;5054768;28;19995;-50
2023/07/22 10:53:27;;;;;;;;;;;;;;;42.92;14.25;98709.84;5072736;28;19923;-49
2023/07/22 10:56:06;;;;;;;;;;;;;;;43.27;14.02;98700.22;5072746;28;19924;-49
2023/07/22 10:58:44;;;;;;;;;;;;;;;43.32;14.02;98699.72;5054680;28;19917;-49
2023/07/22 11:01:25;;;;;;;;;;;;;;;43.31;13.85;98700.94;5072599;28;20386;-49
2023/07/22 11:04:15;;;;;;;;;;;;;;;43.15;14.30;98695.28;5072514;28;19924;-49
2023/07/22 11:06:44;;;;;;;;;;;;;;;43.02;14.04;98701.38;5054557;28;19931;-50
2023/07/22 11:09:33;;;;;;;;;;;;;;;42.38;14.39;98700.31;5072746;28;20369;-49
2023/07/22 11:12:02;;;;;;;;;;;;;;;42.15;14.46;98695.50;5072373;28;20301;-49
2023/07/22 11:14:31;;;;;;;;;;;;;;;41.80;14.84;98689.19;5054427;28;19956;-49
2023/07/22 11:16:57;;;;;;;;;;;;;;;41.95;14.59;98694.53;5072385;28;20447;-49
2023/07/22 11:19:23;;;;;;;;;;;;;;;42.16;14.49;98691.53;5054414;28;20372;-49
2023/07/22 11:21:50;;;;;;;;;;;;;;;42.31;14.65;98683.84;5054315;28;19964;-49
2023/07/22 11:24:16;;;;;;;;;;;;;;;42.48;14.30;98673.78;5072346;28;19917;-49
2023/07/22 11:26:41;;;;;;;;;;;;;;;42.65;14.50;98683.78;5072553;28;20368;-49
2023/07/22 11:29:07;;;;;;;;;;;;;;;42.47;14.83;98683.28;5072234;28;20019;-49
2023/07/22 11:31:33;;;;;;;;;;;;;;;42.06;14.49;98678.69;5071996;28;19971;-50
2023/07/22 11:33:59;;;;;;;;;;;;;;;41.87;14.67;98682.81;5072488;28;19916;-49
2023/07/22 11:36:26;;;;;;;;;;;;;;;41.81;14.50;98676.19;5072160;28;20347;-49
2023/07/22 11:38:52;;;;;;;;;;;;;;;41.79;14.57;98682.09;5072182;28;19921;-49
2023/07/22 11:41:17;;;;;;;;;;;;;;;41.65;14.91;98674.00;5054184;28;20107;-49
2023/07/22 11:43:43;;;;;;;;;;;;;;;41.61;14.66;98676.00;5053834;28;19917;-49
2023/07/22 11:46:08;;;;;;;;;;;;;;;41.19;14.81;98667.72;5072051;28;19924;-49
2023/07/22 11:48:34;;;;;;;;;;;;;;;40.85;15.12;98664.84;5053988;28;19927;-49
2023/07/22 11:51:00;;;;;;;;;;;;;;;40.99;15.21;98667.50;5053907;28;20378;-49
2023/07/22 11:53:28;;;;;;;;;;;;;;;41.45;14.64;98657.25;5072006;28;19916;-49
2023/07/22 11:55:57;;;;;;;;;;;;;;;41.16;14.90;98665.78;5054030;28;20337;-49
2023/07/22 11:58:26;;;;;;;;;;;;;;;40.87;15.05;98667.97;5072015;28;20015;-49
2023/07/22 12:01:06;;;;;;;;;;;;;;;40.17;14.93;98659.72;5071927;28;19923;-49
2023/07/22 12:03:32;;;;;;;;;;;;;;;39.52;15.49;98659.91;5071949;28;19917;-49
2023/07/22 12:06:00;;;;;;;;;;;;;;;38.96;16.24;98656.81;5071918;28;19966;-50
2023/07/22 12:08:26;;;;;;;;;;;;;;;38.76;16.61;98653.66;5053872;28;19920;-49
2023/07/22 12:10:58;;;;;;;;;;;;;;;39.11;16.26;98652.88;5071820;28;19920;-49
2023/07/22 12:13:23;;;;;;;;;;;;;;;39.23;16.20;98648.97;5071785;28;20003;-49
2023/07/22 12:16:02;;;;;;;;;;;;;;;39.23;16.02;98645.44;5053810;28;19979;-49
2023/07/22 12:18:28;;;;;;;;;;;;;;;39.40;15.41;98638.34;5071778;28;19971;-47
2023/07/22 12:20:53;;;;;;;;;;;;;;;38.53;16.26;98649.28;5071767;28;19917;-48
2023/07/22 12:23:21;;;;;;;;;;;;;;;38.12;16.42;98648.78;5053726;28;19927;-47
2023/07/22 12:25:46;;;;;;;;;;;;;;;38.46;16.89;98643.78;5071934;28;19927;-47
2023/07/22 12:28:12;;;;;;;;;;;;;;;38.99;15.96;98636.81;5037192;28;20286;-47
2023/07/22 12:30:38;;;;;;;;;;;;;;;39.54;15.68;98641.88;5071479;28;19921;-47
2023/07/22 12:33:04;;;;;;;;;;;;;;;39.87;15.48;98633.56;5071614;28;19923;-47
2023/07/22 12:35:29;;;;;;;;;;;;;;;40.07;15.34;98634.63;5071629;28;20392;-47
2023/07/22 12:37:55;;;;;;;;;;;;;;;40.03;15.00;98620.13;5053623;28;19927;-46
2023/07/22 12:40:20;;;;;;;;;;;;;;;40.20;14.32;98618.44;5071474;28;19947;-47
2023/07/22 12:42:46;;;;;;;;;;;;;;;40.30;14.46;98625.06;5071573;28;19921;-47
2023/07/22 12:45:12;;;;;;;;;;;;;;;40.40;14.56;98626.22;5071790;28;19917;-47